createdAt,value
2016-02-26T00:00:03.107Z,964.61
2016-02-26T00:01:03.109Z,964.59
2016-02-26T00:02:03.113Z,964.62
2016-02-26T00:03:03.115Z,964.63
2016-02-26T00:04:03.102Z,964.62
2016-02-26T00:05:03.104Z,964.6
2016-02-26T00:06:03.107Z,964.57
2016-02-26T00:07:03.110Z,964.58
2016-02-26T00:08:03.112Z,964.54
2016-02-26T00:09:03.100Z,964.58
2016-02-26T00:10:03.117Z,964.59
2016-02-26T00:11:03.105Z,964.6
2016-02-26T00:12:03.108Z,964.58
2016-02-26T00:13:03.111Z,964.58
2016-02-26T00:14:03.113Z,964.62
2016-02-26T00:15:03.101Z,964.61
2016-02-26T00:16:03.103Z,964.65
2016-02-26T00:17:03.106Z,964.59
2016-02-26T00:18:03.108Z,964.67
2016-02-26T00:19:03.095Z,964.63
2016-02-26T00:20:03.098Z,964.66
2016-02-26T00:21:03.101Z,964.67
2016-02-26T00:22:03.103Z,964.65
2016-02-26T00:23:03.106Z,964.59
2016-02-26T00:24:03.093Z,964.59
2016-02-26T00:25:03.111Z,964.61
2016-02-26T00:26:03.099Z,964.56
2016-02-26T00:27:03.101Z,964.52
2016-02-26T00:28:03.105Z,964.54
2016-02-26T00:29:03.107Z,964.52
2016-02-26T00:30:03.093Z,964.51
2016-02-26T00:31:03.096Z,964.5
2016-02-26T00:32:03.099Z,964.44
2016-02-26T00:33:03.102Z,964.45
2016-02-26T00:34:03.104Z,964.46
2016-02-26T00:35:03.091Z,964.48
2016-02-26T00:36:03.094Z,964.5
2016-02-26T00:37:03.096Z,964.53
2016-02-26T00:38:03.099Z,964.49
2016-02-26T00:39:03.101Z,964.51
2016-02-26T00:40:03.089Z,964.52
2016-02-26T00:41:03.092Z,964.52
2016-02-26T00:42:03.095Z,964.51
2016-02-26T00:43:03.097Z,964.46
2016-02-26T00:44:03.100Z,964.51
2016-02-26T00:45:03.103Z,964.49
2016-02-26T00:46:03.090Z,964.45
2016-02-26T00:47:03.092Z,964.44
2016-02-26T00:48:03.095Z,964.45
2016-02-26T00:49:03.097Z,964.47
2016-02-26T00:50:03.085Z,964.46
2016-02-26T00:51:03.088Z,964.43
2016-02-26T00:52:03.091Z,964.44
2016-02-26T00:53:03.094Z,964.45
2016-02-26T00:54:03.096Z,964.41
2016-02-26T00:55:03.083Z,964.47
2016-02-26T00:56:03.085Z,964.43
2016-02-26T00:57:03.088Z,964.46
2016-02-26T00:58:03.091Z,964.46
2016-02-26T00:59:03.094Z,964.46
2016-02-26T01:00:03.081Z,964.47
2016-02-26T01:01:03.083Z,964.5
2016-02-26T01:02:03.085Z,964.47
2016-02-26T01:03:03.088Z,964.5
2016-02-26T01:04:03.092Z,964.47
2016-02-26T01:05:03.079Z,964.51
2016-02-26T01:06:03.082Z,964.49
2016-02-26T01:07:03.084Z,964.47
2016-02-26T01:08:03.087Z,964.45
2016-02-26T01:09:03.089Z,964.42
2016-02-26T01:10:03.092Z,964.41
2016-02-26T01:11:03.079Z,964.41
2016-02-26T01:12:03.070Z,964.4
2016-02-26T01:13:03.061Z,964.39
2016-02-26T01:14:03.051Z,964.38
2016-02-26T01:15:03.042Z,964.38
2016-02-26T01:16:03.032Z,964.35
2016-02-26T01:17:03.014Z,964.35
2016-02-26T01:18:03.012Z,964.3
2016-02-26T01:19:03.011Z,964.32
2016-02-26T01:20:02.994Z,964.26
2016-02-26T01:21:02.992Z,964.27
2016-02-26T01:22:02.994Z,964.27
2016-02-26T01:23:02.995Z,964.25
2016-02-26T01:24:02.996Z,964.21
2016-02-26T01:25:02.981Z,964.21
2016-02-26T01:26:02.998Z,964.22
2016-02-26T01:27:02.984Z,964.19
2016-02-26T01:28:02.986Z,964.15
2016-02-26T01:29:02.988Z,964.14
2016-02-26T01:30:02.975Z,964.11
2016-02-26T01:31:02.977Z,964.17
2016-02-26T01:32:02.979Z,964.12
2016-02-26T01:33:02.982Z,964.09
2016-02-26T01:34:02.984Z,964.07
2016-02-26T01:35:02.988Z,964.05
2016-02-26T01:36:02.974Z,964.06
2016-02-26T01:37:02.977Z,964.06
2016-02-26T01:38:02.979Z,964.03
2016-02-26T01:39:02.982Z,964.04
2016-02-26T01:40:02.985Z,964.03
2016-02-26T01:41:02.972Z,964.01
2016-02-26T01:42:02.974Z,964.02
2016-02-26T01:43:02.977Z,963.96
2016-02-26T01:44:02.980Z,963.95
2016-02-26T01:45:02.967Z,963.95
2016-02-26T01:46:02.970Z,963.89
2016-02-26T01:47:02.973Z,963.9
2016-02-26T01:48:02.976Z,963.88
2016-02-26T01:49:02.978Z,963.84
2016-02-26T01:50:02.981Z,963.89
2016-02-26T01:51:02.967Z,963.87
2016-02-26T01:52:02.986Z,963.87
2016-02-26T01:53:02.973Z,963.93
2016-02-26T01:54:02.976Z,963.9
2016-02-26T01:55:02.962Z,963.88
2016-02-26T01:56:02.965Z,963.9
2016-02-26T01:57:02.968Z,963.86
2016-02-26T01:58:02.971Z,963.84
2016-02-26T01:59:02.973Z,963.82
2016-02-26T02:00:02.976Z,963.84
2016-02-26T02:01:02.963Z,963.8
2016-02-26T02:02:02.966Z,963.74
2016-02-26T02:03:02.969Z,963.74
2016-02-26T02:04:02.971Z,963.7
2016-02-26T02:05:02.958Z,963.71
2016-02-26T02:06:02.961Z,963.73
2016-02-26T02:07:02.964Z,963.71
2016-02-26T02:08:02.966Z,963.74
2016-02-26T02:09:02.969Z,963.72
2016-02-26T02:10:02.956Z,963.74
2016-02-26T02:11:02.960Z,963.7
2016-02-26T02:12:02.962Z,963.69
2016-02-26T02:13:02.965Z,963.68
2016-02-26T02:14:02.967Z,963.67
2016-02-26T02:15:02.970Z,963.67
2016-02-26T02:16:02.957Z,963.69
2016-02-26T02:17:02.959Z,963.72
2016-02-26T02:18:02.962Z,963.69
2016-02-26T02:19:02.965Z,963.69
2016-02-26T02:20:02.951Z,963.69
2016-02-26T02:21:02.954Z,963.67
2016-02-26T02:22:02.957Z,963.65
2016-02-26T02:23:02.959Z,963.67
2016-02-26T02:24:02.962Z,963.65
2016-02-26T02:25:02.965Z,963.63
2016-02-26T02:26:02.968Z,963.63
2016-02-26T02:27:02.955Z,963.62
2016-02-26T02:28:02.958Z,963.62
2016-02-26T02:29:02.961Z,963.62
2016-02-26T02:30:02.948Z,963.6
2016-02-26T02:31:02.950Z,963.65
2016-02-26T02:32:02.953Z,963.63
2016-02-26T02:33:02.955Z,963.68
2016-02-26T02:34:02.959Z,963.67
2016-02-26T02:35:02.945Z,963.63
2016-02-26T02:36:02.948Z,963.67
2016-02-26T02:37:02.950Z,963.64
2016-02-26T02:38:02.953Z,963.65
2016-02-26T02:39:02.955Z,963.66
2016-02-26T02:40:02.943Z,963.69
2016-02-26T02:41:02.961Z,963.68
2016-02-26T02:42:02.949Z,963.68
2016-02-26T02:43:02.952Z,963.64
2016-02-26T02:44:02.954Z,963.71
2016-02-26T02:45:02.940Z,963.7
2016-02-26T02:46:02.943Z,963.69
2016-02-26T02:47:02.947Z,963.7
2016-02-26T02:48:02.949Z,963.74
2016-02-26T02:49:02.952Z,963.72
2016-02-26T02:50:02.954Z,963.69
2016-02-26T02:51:02.942Z,963.71
2016-02-26T02:52:02.944Z,963.69
2016-02-26T02:53:02.947Z,963.69
2016-02-26T02:54:02.950Z,963.66
2016-02-26T02:55:02.937Z,963.67
2016-02-26T02:56:02.940Z,963.66
2016-02-26T02:57:02.942Z,963.69
2016-02-26T02:58:02.944Z,963.65
2016-02-26T02:59:02.931Z,963.67
2016-02-26T03:00:02.935Z,963.67
2016-02-26T03:01:02.937Z,963.65
2016-02-26T03:02:02.956Z,963.65
2016-02-26T03:03:02.942Z,963.61
2016-02-26T03:04:02.930Z,963.6
2016-02-26T03:05:02.933Z,963.56
2016-02-26T03:06:02.940Z,963.63
2016-02-26T03:07:02.927Z,963.58
2016-02-26T03:08:02.930Z,963.6
2016-02-26T03:09:02.933Z,963.57
2016-02-26T03:10:02.936Z,963.56
2016-02-26T03:11:02.938Z,963.55
2016-02-26T03:12:02.926Z,963.51
2016-02-26T03:13:02.928Z,963.52
2016-02-26T03:14:02.931Z,963.51
2016-02-26T03:15:02.934Z,963.49
2016-02-26T03:16:02.936Z,963.52
2016-02-26T03:17:02.924Z,963.51
2016-02-26T03:18:02.926Z,963.49
2016-02-26T03:19:02.929Z,963.5
2016-02-26T03:20:02.932Z,963.44
2016-02-26T03:21:02.935Z,963.5
2016-02-26T03:22:02.921Z,963.48
2016-02-26T03:23:02.924Z,963.5
2016-02-26T03:24:02.926Z,963.49
2016-02-26T03:25:02.930Z,963.52
2016-02-26T03:26:02.932Z,963.48
2016-02-26T03:27:02.919Z,963.49
2016-02-26T03:28:02.921Z,963.44
2016-02-26T03:29:02.924Z,963.47
2016-02-26T03:30:02.927Z,963.48
2016-02-26T03:31:02.915Z,963.44
2016-02-26T03:32:02.932Z,963.44
2016-02-26T03:33:02.920Z,963.39
2016-02-26T03:34:02.922Z,963.43
2016-02-26T03:35:02.925Z,963.39
2016-02-26T03:36:02.928Z,963.37
2016-02-26T03:37:02.914Z,963.4
2016-02-26T03:38:02.918Z,963.34
2016-02-26T03:39:02.920Z,963.33
2016-02-26T03:40:02.923Z,963.33
2016-02-26T03:41:02.910Z,963.36
2016-02-26T03:42:02.913Z,963.32
2016-02-26T03:43:02.931Z,963.31
2016-02-26T03:44:02.919Z,963.29
2016-02-26T03:45:02.905Z,963.34
2016-02-26T03:46:02.908Z,963.34
2016-02-26T03:47:02.910Z,963.34
2016-02-26T03:48:02.913Z,963.38
2016-02-26T03:49:02.916Z,963.37
2016-02-26T03:50:02.918Z,963.4
2016-02-26T03:51:02.922Z,963.39
2016-02-26T03:52:02.908Z,963.37
2016-02-26T03:53:02.910Z,963.38
2016-02-26T03:54:02.898Z,963.37
2016-02-26T03:55:02.916Z,963.36
2016-02-26T03:56:02.919Z,963.35
2016-02-26T03:57:02.907Z,963.36
2016-02-26T03:58:02.909Z,963.32
2016-02-26T03:59:02.896Z,963.32
2016-02-26T04:00:02.898Z,963.36
2016-02-26T04:01:02.901Z,963.34
2016-02-26T04:02:02.904Z,963.34
2016-02-26T04:03:02.907Z,963.29
2016-02-26T04:04:02.909Z,963.35
2016-02-26T04:05:02.896Z,963.32
2016-02-26T04:06:02.898Z,963.29
2016-02-26T04:07:02.901Z,963.3
2016-02-26T04:08:02.904Z,963.31
2016-02-26T04:09:02.891Z,963.35
2016-02-26T04:10:02.894Z,963.36
2016-02-26T04:11:02.897Z,963.38
2016-02-26T04:12:02.899Z,963.41
2016-02-26T04:13:02.902Z,963.4
2016-02-26T04:14:02.890Z,963.44
2016-02-26T04:15:02.892Z,963.49
2016-02-26T04:16:02.895Z,963.55
2016-02-26T04:17:02.897Z,963.53
2016-02-26T04:18:02.885Z,963.53
2016-02-26T04:19:02.902Z,963.52
2016-02-26T04:20:02.890Z,963.53
2016-02-26T04:21:02.893Z,963.53
2016-02-26T04:22:02.896Z,963.55
2016-02-26T04:23:02.898Z,963.52
2016-02-26T04:24:02.885Z,963.51
2016-02-26T04:25:02.887Z,963.5
2016-02-26T04:26:02.906Z,963.52
2016-02-26T04:27:02.894Z,963.52
2016-02-26T04:28:02.896Z,963.5
2016-02-26T04:29:02.883Z,963.52
2016-02-26T04:30:02.885Z,963.53
2016-02-26T04:31:02.888Z,963.53
2016-02-26T04:32:02.890Z,963.52
2016-02-26T04:33:02.879Z,963.5
2016-02-26T04:34:02.881Z,963.52
2016-02-26T04:35:02.884Z,963.5
2016-02-26T04:36:02.886Z,963.51
2016-02-26T04:37:02.873Z,963.49
2016-02-26T04:38:02.891Z,963.47
2016-02-26T04:39:02.878Z,963.45
2016-02-26T04:40:02.882Z,963.45
2016-02-26T04:41:02.884Z,963.39
2016-02-26T04:42:02.870Z,963.39
2016-02-26T04:43:02.873Z,963.4
2016-02-26T04:44:02.876Z,963.36
2016-02-26T04:45:02.879Z,963.34
2016-02-26T04:46:02.882Z,963.32
2016-02-26T04:47:02.869Z,963.31
2016-02-26T04:48:02.872Z,963.33
2016-02-26T04:49:02.874Z,963.32
2016-02-26T04:50:02.877Z,963.31
2016-02-26T04:51:02.863Z,963.3
2016-02-26T04:52:02.866Z,963.3
2016-02-26T04:53:02.870Z,963.32
2016-02-26T04:54:02.872Z,963.3
2016-02-26T04:55:02.859Z,963.32
2016-02-26T04:56:02.862Z,963.35
2016-02-26T04:57:02.864Z,963.3
2016-02-26T04:58:02.868Z,963.34
2016-02-26T04:59:02.871Z,963.35
2016-02-26T05:00:02.873Z,963.37
2016-02-26T05:01:02.860Z,963.35
2016-02-26T05:02:02.862Z,963.35
2016-02-26T05:03:02.865Z,963.33
2016-02-26T05:04:02.867Z,963.37
2016-02-26T05:05:02.860Z,963.35
2016-02-26T05:06:02.863Z,963.34
2016-02-26T05:07:02.866Z,963.3
2016-02-26T05:08:02.853Z,963.28
2016-02-26T05:09:02.856Z,963.29
2016-02-26T05:10:02.859Z,963.27
2016-02-26T05:11:02.862Z,963.28
2016-02-26T05:12:02.864Z,963.25
2016-02-26T05:13:02.851Z,963.26
2016-02-26T05:14:02.854Z,963.21
2016-02-26T05:15:02.856Z,963.19
2016-02-26T05:16:02.859Z,963.17
2016-02-26T05:17:02.861Z,963.19
2016-02-26T05:18:02.849Z,963.15
2016-02-26T05:19:02.851Z,963.15
2016-02-26T05:20:02.854Z,963.14
2016-02-26T05:21:02.856Z,963.16
2016-02-26T05:22:02.859Z,963.14
2016-02-26T05:23:02.847Z,963.16
2016-02-26T05:24:02.849Z,963.13
2016-02-26T05:25:02.852Z,963.16
2016-02-26T05:26:02.855Z,963.11
2016-02-26T05:27:02.842Z,963.15
2016-02-26T05:28:02.844Z,963.1
2016-02-26T05:29:02.847Z,963.11
2016-02-26T05:30:02.849Z,963.06
2016-02-26T05:31:02.837Z,963.07
2016-02-26T05:32:02.839Z,963.06
2016-02-26T05:33:02.841Z,963.01
2016-02-26T05:34:02.844Z,963.01
2016-02-26T05:35:02.832Z,962.98
2016-02-26T05:36:02.835Z,962.98
2016-02-26T05:37:02.838Z,963
2016-02-26T05:38:02.840Z,962.97
2016-02-26T05:39:02.843Z,962.94
2016-02-26T05:40:02.829Z,962.89
2016-02-26T05:41:02.832Z,962.9
2016-02-26T05:42:02.834Z,962.9
2016-02-26T05:43:02.837Z,962.88
2016-02-26T05:44:02.825Z,962.87
2016-02-26T05:45:02.828Z,962.87
2016-02-26T05:46:02.831Z,962.86
2016-02-26T05:47:02.833Z,962.84
2016-02-26T05:48:02.820Z,962.83
2016-02-26T05:49:02.823Z,962.84
2016-02-26T05:50:02.842Z,962.83
2016-02-26T05:51:02.844Z,962.81
2016-02-26T05:52:02.831Z,962.82
2016-02-26T05:53:02.818Z,962.79
2016-02-26T05:54:02.821Z,962.81
2016-02-26T05:55:02.823Z,962.78
2016-02-26T05:56:02.825Z,962.76
2016-02-26T05:57:02.829Z,962.77
2016-02-26T05:58:02.816Z,962.77
2016-02-26T05:59:02.818Z,962.75
2016-02-26T06:00:02.821Z,962.72
2016-02-26T06:01:02.824Z,962.73
2016-02-26T06:02:02.827Z,962.72
2016-02-26T06:03:02.814Z,962.67
2016-02-26T06:04:02.816Z,962.67
2016-02-26T06:05:02.819Z,962.68
2016-02-26T06:06:02.821Z,962.68
2016-02-26T06:07:02.808Z,962.66
2016-02-26T06:08:02.811Z,962.65
2016-02-26T06:09:02.814Z,962.6
2016-02-26T06:10:02.816Z,962.57
2016-02-26T06:11:02.804Z,962.58
2016-02-26T06:12:02.806Z,962.58
2016-02-26T06:13:02.809Z,962.55
2016-02-26T06:14:02.812Z,962.59
2016-02-26T06:15:02.799Z,962.58
2016-02-26T06:16:02.802Z,962.53
2016-02-26T06:17:02.804Z,962.56
2016-02-26T06:18:02.807Z,962.6
2016-02-26T06:19:02.809Z,962.58
2016-02-26T06:20:02.797Z,962.65
2016-02-26T06:21:02.799Z,962.55
2016-02-26T06:22:02.803Z,962.56
2016-02-26T06:23:02.805Z,962.52
2016-02-26T06:24:02.808Z,962.51
2016-02-26T06:25:02.794Z,962.49
2016-02-26T06:26:02.797Z,962.51
2016-02-26T06:27:02.800Z,962.49
2016-02-26T06:28:02.802Z,962.48
2016-02-26T06:29:02.806Z,962.49
2016-02-26T06:30:02.792Z,962.48
2016-02-26T06:31:02.795Z,962.48
2016-02-26T06:32:02.797Z,962.49
2016-02-26T06:33:02.800Z,962.49
2016-02-26T06:34:02.787Z,962.5
2016-02-26T06:35:02.791Z,962.44
2016-02-26T06:36:02.793Z,962.41
2016-02-26T06:37:02.796Z,962.43
2016-02-26T06:38:02.782Z,962.43
2016-02-26T06:39:02.785Z,962.42
2016-02-26T06:40:02.787Z,962.42
2016-02-26T06:41:02.791Z,962.4
2016-02-26T06:42:02.794Z,962.39
2016-02-26T06:43:02.776Z,962.39
2016-02-26T06:44:02.778Z,962.37
2016-02-26T06:45:02.781Z,962.33
2016-02-26T06:46:02.785Z,962.4
2016-02-26T06:47:02.787Z,962.39
2016-02-26T06:48:02.789Z,962.39
2016-02-26T06:49:02.792Z,962.4
2016-02-26T06:50:02.780Z,962.45
2016-02-26T06:51:02.783Z,962.42
2016-02-26T06:52:02.785Z,962.42
2016-02-26T06:53:02.788Z,962.48
2016-02-26T06:54:02.775Z,962.44
2016-02-26T06:55:02.778Z,962.46
2016-02-26T06:56:02.780Z,962.45
2016-02-26T06:57:02.782Z,962.41
2016-02-26T06:58:02.785Z,962.4
2016-02-26T06:59:02.788Z,962.36
2016-02-26T07:00:02.791Z,962.41
2016-02-26T07:01:02.779Z,962.34
2016-02-26T07:02:02.781Z,962.34
2016-02-26T07:03:02.784Z,962.35
2016-02-26T07:04:02.786Z,962.38
2016-02-26T07:05:02.789Z,962.36
2016-02-26T07:06:02.792Z,962.32
2016-02-26T07:07:02.795Z,962.33
2016-02-26T07:08:02.782Z,962.33
2016-02-26T07:09:02.784Z,962.35
2016-02-26T07:10:02.786Z,962.33
2016-02-26T07:11:02.789Z,962.34
2016-02-26T07:12:02.793Z,962.34
2016-02-26T07:13:02.795Z,962.33
2016-02-26T07:14:02.798Z,962.36
2016-02-26T07:15:02.800Z,962.36
2016-02-26T07:16:02.803Z,962.35
2016-02-26T07:17:02.789Z,962.28
2016-02-26T07:18:02.792Z,962.33
2016-02-26T07:19:02.794Z,962.28
2016-02-26T07:20:02.798Z,962.29
2016-02-26T07:21:02.801Z,962.27
2016-02-26T07:22:02.803Z,962.32
2016-02-26T07:23:02.806Z,962.24
2016-02-26T07:24:02.808Z,962.24
2016-02-26T07:25:02.812Z,962.29
2016-02-26T07:26:02.814Z,962.27
2016-02-26T07:27:02.817Z,962.24
2016-02-26T07:28:02.819Z,962.26
2016-02-26T07:29:02.807Z,962.26
2016-02-26T07:30:02.824Z,962.28
2016-02-26T07:31:02.812Z,962.32
2016-02-26T07:32:02.829Z,962.32
2016-02-26T07:33:02.818Z,962.36
2016-02-26T07:34:02.821Z,962.34
2016-02-26T07:35:02.823Z,962.31
2016-02-26T07:36:02.826Z,962.32
2016-02-26T07:37:02.828Z,962.3
2016-02-26T07:38:02.831Z,962.35
2016-02-26T07:39:02.834Z,962.27
2016-02-26T07:40:02.837Z,962.22
2016-02-26T07:41:02.839Z,962.24
2016-02-26T07:42:02.842Z,962.21
2016-02-26T07:43:02.844Z,962.23
2016-02-26T07:44:02.847Z,962.23
2016-02-26T07:45:02.849Z,962.24
2016-02-26T07:46:02.853Z,962.17
2016-02-26T07:47:02.856Z,962.21
2016-02-26T07:48:02.858Z,962.16
2016-02-26T07:49:02.861Z,962.15
2016-02-26T07:50:02.863Z,962.21
2016-02-26T07:51:02.866Z,962.15
2016-02-26T07:52:02.868Z,962.17
2016-02-26T07:53:02.872Z,962.11
2016-02-26T07:54:02.874Z,962.16
2016-02-26T07:55:02.877Z,962.11
2016-02-26T07:56:02.879Z,962.11
2016-02-26T07:57:02.882Z,962.07
2016-02-26T07:58:02.884Z,962.05
2016-02-26T07:59:02.888Z,962.09
2016-02-26T08:00:02.891Z,962.07
2016-02-26T08:01:02.893Z,962.06
2016-02-26T08:02:02.896Z,962.06
2016-02-26T08:03:02.898Z,962.07
2016-02-26T08:04:02.901Z,962.08
2016-02-26T08:05:02.903Z,962.05
2016-02-26T08:06:02.906Z,962.07
2016-02-26T08:07:02.909Z,962.06
2016-02-26T08:08:02.912Z,962.03
2016-02-26T08:09:02.915Z,962.04
2016-02-26T08:10:02.917Z,962.11
2016-02-26T08:11:02.920Z,962.02
2016-02-26T08:12:02.938Z,961.97
2016-02-26T08:13:02.940Z,961.99
2016-02-26T08:14:02.943Z,961.96
2016-02-26T08:15:02.962Z,961.94
2016-02-26T08:16:02.948Z,961.91
2016-02-26T08:17:02.951Z,961.94
2016-02-26T08:18:02.954Z,961.88
2016-02-26T08:19:02.956Z,961.88
2016-02-26T08:20:02.959Z,961.85
2016-02-26T08:21:02.962Z,961.92
2016-02-26T08:22:02.964Z,961.83
2016-02-26T08:23:02.967Z,961.82
2016-02-26T08:24:02.970Z,961.81
2016-02-26T08:25:02.973Z,961.8
2016-02-26T08:26:02.975Z,961.88
2016-02-26T08:27:02.978Z,961.83
2016-02-26T08:28:02.981Z,961.79
2016-02-26T08:29:02.983Z,961.83
2016-02-26T08:30:02.986Z,961.82
2016-02-26T08:31:03.005Z,961.84
2016-02-26T08:32:03.007Z,961.87
2016-02-26T08:33:02.994Z,961.83
2016-02-26T08:34:02.997Z,961.86
2016-02-26T08:35:03.015Z,961.87
2016-02-26T08:36:03.018Z,961.92
2016-02-26T08:37:03.021Z,961.88
2016-02-26T08:38:03.023Z,961.88
2016-02-26T08:39:03.026Z,961.87
2016-02-26T08:40:03.028Z,961.84
2016-02-26T08:41:03.031Z,961.83
2016-02-26T08:42:03.034Z,961.8
2016-02-26T08:43:03.037Z,961.83
2016-02-26T08:44:03.039Z,961.78
2016-02-26T08:45:03.043Z,961.79
2016-02-26T08:46:03.045Z,961.8
2016-02-26T08:47:03.048Z,961.76
2016-02-26T08:48:03.050Z,961.73
2016-02-26T08:49:03.053Z,961.78
2016-02-26T08:50:03.056Z,961.74
2016-02-26T08:51:03.058Z,961.72
2016-02-26T08:52:03.061Z,961.77
2016-02-26T08:53:03.080Z,961.76
2016-02-26T08:54:03.082Z,961.68
2016-02-26T08:55:03.085Z,961.7
2016-02-26T08:56:03.088Z,961.71
2016-02-26T08:57:03.091Z,961.69
2016-02-26T08:58:03.093Z,961.63
2016-02-26T08:59:03.096Z,961.63
2016-02-26T09:00:03.099Z,961.61
2016-02-26T09:01:03.101Z,961.58
2016-02-26T09:02:03.104Z,961.56
2016-02-26T09:03:03.107Z,961.54
2016-02-26T09:04:03.110Z,961.6
2016-02-26T09:05:03.112Z,961.5
2016-02-26T09:06:03.115Z,961.57
2016-02-26T09:07:03.118Z,961.47
2016-02-26T09:08:03.120Z,961.44
2016-02-26T09:09:03.123Z,961.42
2016-02-26T09:10:03.141Z,961.46
2016-02-26T09:11:03.143Z,961.46
2016-02-26T09:12:03.146Z,961.47
2016-02-26T09:13:03.149Z,961.45
2016-02-26T09:14:03.151Z,961.45
2016-02-26T09:15:03.154Z,961.4
2016-02-26T09:16:03.142Z,961.41
2016-02-26T09:17:03.160Z,961.43
2016-02-26T09:18:03.162Z,961.39
2016-02-26T09:19:03.165Z,961.41
2016-02-26T09:20:03.168Z,961.44
2016-02-26T09:21:03.170Z,961.42
2016-02-26T09:22:03.173Z,961.41
2016-02-26T09:23:03.175Z,961.44
2016-02-26T09:24:03.178Z,961.43
2016-02-26T09:25:03.181Z,961.46
2016-02-26T09:26:03.183Z,961.47
2016-02-26T09:27:03.186Z,961.45
2016-02-26T09:28:03.189Z,961.43
2016-02-26T09:29:03.223Z,961.4
2016-02-26T09:30:03.194Z,961.41
2016-02-26T09:31:03.197Z,961.38
2016-02-26T09:32:03.200Z,961.4
2016-02-26T09:33:03.202Z,961.4
2016-02-26T09:34:03.205Z,961.46
2016-02-26T09:35:03.208Z,961.47
2016-02-26T09:36:03.210Z,961.47
2016-02-26T09:37:03.213Z,961.43
2016-02-26T09:38:03.215Z,961.38
2016-02-26T09:39:03.219Z,961.35
2016-02-26T09:40:03.221Z,961.37
2016-02-26T09:41:03.224Z,961.3
2016-02-26T09:42:03.227Z,961.29
2016-02-26T09:43:03.229Z,961.29
2016-02-26T09:44:03.248Z,961.28
2016-02-26T09:45:03.234Z,961.26
2016-02-26T09:46:03.254Z,961.32
2016-02-26T09:47:03.240Z,961.3
2016-02-26T09:48:03.242Z,961.39
2016-02-26T09:49:03.245Z,961.37
2016-02-26T09:50:03.248Z,961.29
2016-02-26T09:51:03.251Z,961.29
2016-02-26T09:52:03.254Z,961.25
2016-02-26T09:53:03.257Z,961.29
2016-02-26T09:54:03.259Z,961.3
2016-02-26T09:55:03.262Z,961.27
2016-02-26T09:56:03.265Z,961.24
2016-02-26T09:57:03.267Z,961.27
2016-02-26T09:58:03.270Z,961.23
2016-02-26T09:59:03.272Z,961.27
2016-02-26T10:00:03.275Z,961.29
2016-02-26T10:01:03.278Z,961.28
2016-02-26T10:02:03.280Z,961.26
2016-02-26T10:03:03.283Z,961.24
2016-02-26T10:04:03.286Z,961.23
2016-02-26T10:05:03.288Z,961.26
2016-02-26T10:06:03.307Z,961.21
2016-02-26T10:07:03.294Z,961.24
2016-02-26T10:08:03.312Z,961.21
2016-02-26T10:09:03.299Z,961.18
2016-02-26T10:10:03.301Z,961.18
2016-02-26T10:11:03.305Z,961.23
2016-02-26T10:12:03.307Z,961.14
2016-02-26T10:13:03.310Z,961.19
2016-02-26T10:14:03.313Z,961.22
2016-02-26T10:15:03.332Z,961.13
2016-02-26T10:16:03.318Z,961.15
2016-02-26T10:17:03.318Z,961.16
2016-02-26T10:18:03.309Z,961.17
2016-02-26T10:19:03.299Z,961.16
2016-02-26T10:20:03.291Z,961.15
2016-02-26T10:21:03.284Z,961.11
2016-02-26T10:22:03.275Z,961.14
2016-02-26T10:23:03.274Z,961.09
2016-02-26T10:24:03.272Z,961.08
2016-02-26T10:25:03.269Z,961.08
2016-02-26T10:26:03.268Z,961.06
2016-02-26T10:27:03.267Z,961.04
2016-02-26T10:28:03.268Z,961.07
2016-02-26T10:29:03.269Z,961.06
2016-02-26T10:30:03.270Z,961.07
2016-02-26T10:31:03.271Z,961.03
2016-02-26T10:32:03.273Z,961
2016-02-26T10:33:03.260Z,961
2016-02-26T10:34:03.278Z,961
2016-02-26T10:35:03.264Z,961.02
2016-02-26T10:36:03.282Z,960.98
2016-02-26T10:37:03.269Z,961.01
2016-02-26T10:38:03.286Z,960.98
2016-02-26T10:39:03.273Z,960.99
2016-02-26T10:40:03.276Z,961.01
2016-02-26T10:41:03.278Z,960.95
2016-02-26T10:42:03.281Z,960.98
2016-02-26T10:43:03.284Z,960.99
2016-02-26T10:44:03.301Z,960.95
2016-02-26T10:45:03.289Z,960.9
2016-02-26T10:46:03.292Z,960.95
2016-02-26T10:47:03.294Z,960.92
2016-02-26T10:48:03.297Z,960.93
2016-02-26T10:49:03.300Z,960.88
2016-02-26T10:50:03.302Z,960.83
2016-02-26T10:51:03.306Z,960.83
2016-02-26T10:52:03.308Z,960.79
2016-02-26T10:53:03.311Z,960.77
2016-02-26T10:54:03.313Z,960.81
2016-02-26T10:55:03.316Z,960.77
2016-02-26T10:56:03.302Z,960.72
2016-02-26T10:57:03.305Z,960.73
2016-02-26T10:58:03.308Z,960.72
2016-02-26T10:59:03.327Z,960.67
2016-02-26T11:00:03.313Z,960.69
2016-02-26T11:01:03.316Z,960.91
2016-02-26T11:02:03.319Z,960.7
2016-02-26T11:03:03.321Z,960.72
2016-02-26T11:04:03.324Z,960.69
2016-02-26T11:05:03.327Z,960.65
2016-02-26T11:06:03.329Z,960.65
2016-02-26T11:07:03.332Z,960.61
2016-02-26T11:08:03.334Z,960.69
2016-02-26T11:09:03.338Z,960.61
2016-02-26T11:10:03.341Z,960.65
2016-02-26T11:11:03.343Z,960.73
2016-02-26T11:12:03.345Z,960.55
2016-02-26T11:13:03.333Z,960.59
2016-02-26T11:14:03.351Z,960.55
2016-02-26T11:15:03.354Z,960.52
2016-02-26T11:16:03.372Z,960.52
2016-02-26T11:17:03.343Z,960.54
2016-02-26T11:18:03.346Z,960.55
2016-02-26T11:19:03.348Z,960.53
2016-02-26T11:20:03.351Z,960.48
2016-02-26T11:21:03.354Z,960.53
2016-02-26T11:22:03.356Z,960.52
2016-02-26T11:23:03.359Z,960.47
2016-02-26T11:24:03.361Z,960.41
2016-02-26T11:25:03.364Z,960.46
2016-02-26T11:26:03.367Z,960.52
2016-02-26T11:27:03.370Z,960.48
2016-02-26T11:28:03.372Z,960.49
2016-02-26T11:29:03.423Z,960.49
2016-02-26T11:30:03.378Z,960.55
2016-02-26T11:31:03.381Z,960.47
2016-02-26T11:32:03.383Z,960.51
2016-02-26T11:33:03.371Z,960.56
2016-02-26T11:34:03.389Z,960.52
2016-02-26T11:35:03.438Z,960.45
2016-02-26T11:36:03.394Z,960.43
2016-02-26T11:37:03.397Z,960.42
2016-02-26T11:38:03.385Z,960.39
2016-02-26T11:39:03.388Z,960.51
2016-02-26T11:40:03.390Z,960.44
2016-02-26T11:41:03.392Z,960.37
2016-02-26T11:42:03.396Z,960.37
2016-02-26T11:43:03.413Z,960.32
2016-02-26T11:44:03.401Z,960.37
2016-02-26T11:45:03.403Z,960.29
2016-02-26T11:46:03.406Z,960.31
2016-02-26T11:47:03.409Z,960.29
2016-02-26T11:48:03.396Z,960.25
2016-02-26T11:49:03.414Z,960.26
2016-02-26T11:50:03.400Z,960.28
2016-02-26T11:51:03.404Z,960.23
2016-02-26T11:52:03.406Z,960.22
2016-02-26T11:53:03.409Z,960.15
2016-02-26T11:54:03.412Z,960.19
2016-02-26T11:55:03.415Z,960.21
2016-02-26T11:56:03.417Z,960.11
2016-02-26T11:57:03.420Z,960.17
2016-02-26T11:58:03.438Z,960.17
2016-02-26T11:59:03.425Z,960.12
2016-02-26T12:00:03.428Z,960.16
2016-02-26T12:01:03.430Z,960.14
2016-02-26T12:02:03.433Z,960.12
2016-02-26T12:03:03.436Z,960.09
2016-02-26T12:04:03.438Z,960.03
2016-02-26T12:05:03.425Z,960.03
2016-02-26T12:06:03.444Z,960.05
2016-02-26T12:07:03.431Z,960.03
2016-02-26T12:08:03.433Z,960.01
2016-02-26T12:09:03.452Z,960
2016-02-26T12:10:03.454Z,960.04
2016-02-26T12:11:03.441Z,959.99
2016-02-26T12:12:03.444Z,960.03
2016-02-26T12:13:03.446Z,960.01
2016-02-26T12:14:03.449Z,960.04
2016-02-26T12:15:03.452Z,960
2016-02-26T12:16:03.455Z,959.94
2016-02-26T12:17:03.457Z,959.91
2016-02-26T12:18:03.460Z,959.83
2016-02-26T12:19:03.479Z,959.82
2016-02-26T12:20:03.465Z,959.85
2016-02-26T12:21:03.453Z,959.86
2016-02-26T12:22:03.471Z,959.83
2016-02-26T12:23:03.458Z,959.85
2016-02-26T12:24:03.461Z,959.78
2016-02-26T12:25:03.464Z,959.81
2016-02-26T12:26:03.482Z,959.77
2016-02-26T12:27:03.469Z,959.77
2016-02-26T12:28:03.472Z,959.73
2016-02-26T12:29:03.475Z,959.68
2016-02-26T12:30:03.477Z,959.68
2016-02-26T12:31:03.480Z,959.67